Matt Keller @substr

http://mttkllr.com/

Co-founder of Aigean, tech enthusiast, space nut, UAS pilot, SFL sports fan, tinkerer, dog lover, pc/board gamer, beer drinker, nerd, confidant, human

  • Posts
    35
  • Followers
    95
  • Following
    64
  • Comments 0

Advertising
Sunset
2017.01.17
Orlando, FL

ALT: 400ft AGL
HDG: 249°

METAR KORL 13005KT 10SM CLR 23/17 A3020 RMK AO2 SLP230 T02330167
  • Comments 0

Sunset 2017.01.17 Orlando, FL ALT: 400ft AGL HDG: 249° METAR KORL 13005KT 10SM CLR 23/17 A3020 RMK AO2 SLP230 T02330167

Sunset
2017.01.11
Orlando, Fl

ALT: 400ft AGL
HDG: 244°

METAR KORL 112253Z 07009KT 10SM BKN060 21/13 A3031 RMK AO2  SLP268 T02060133=
  • Comments 0

Sunset 2017.01.11 Orlando, Fl ALT: 400ft AGL HDG: 244° METAR KORL 112253Z 07009KT 10SM BKN060 21/13 A3031 RMK AO2 SLP268 T02060133=

  • Comments 1

Advertising
  • Comments 0

Post-storm sunset
  • Comments 0

Post-storm sunset

  • Comments 1

Advertising
Yesterday's sunset
  • Comments 0

Yesterday's sunset

Double full rainbows. Can't get the whole thing in frame though.
  • Comments 0

Double full rainbows. Can't get the whole thing in frame though.

#lightning
  • Comments 1

#lightning

Advertising
Oakley does not approve of this cold snap.
  • Comments 1

Oakley does not approve of this cold snap.

Weird sunset with smoke on the horizon
  • Comments 0

Weird sunset with smoke on the horizon

NEXT